EW8956 Weather Reports


Display with metric or nautical units.
time (UTC)temp
F
wind
direction
speed
MPH
gust
MPH
rain 1hr
in
rain 24hr
in
rain mn
in
humidity
%
barometer
mb
20230203060050 43 0 0.0 3.0 0.00 0.33 0.00 96 1016.8
20230203054549 43 0 0.0 3.0 0.00 0.33 0.00 96 1016.9
20230203053048 43 0 0.0 3.0 0.00 0.33 0.00 96 1016.8
20230203051606 43 232 0.0 2.0 0.00 0.33 0.00 96 1016.8
20230203050054 43 0 0.0 2.0 0.00 0.33 0.00 96 1016.8
20230203044553 43 0 0.0 2.0 0.00 0.33 0.33 96 1016.8
20230203043055 43 214 0.0 4.0 0.00 0.33 0.33 96 1017.0
20230203041549 43 0 0.0 2.0 0.00 0.33 0.33 96 1017.2
20230203040048 43 0 0.0 2.0 0.00 0.33 0.33 95 1017.0
20230203034550 43 0 0.0 2.0 0.00 0.33 0.33 95 1017.2
20230203033048 43 0 0.0 3.0 0.00 0.33 0.33 95 1017.4
20230203031549 42 236 0.0 3.0 0.01 0.33 0.33 95 1017.7
20230203030045 42 237 1.0 5.0 0.01 0.33 0.33 95 1017.6
20230203024554 42 0 1.0 4.0 0.01 0.33 0.33 95 1017.8
20230203023046 42 212 0.0 3.0 0.01 0.33 0.33 95 1017.7
20230203021546 42 220 1.0 4.0 0.00 0.32 0.32 95 1017.7
20230203020052 42 215 0.0 4.0 0.00 0.32 0.32 95 1017.7
20230203014545 42 0 1.0 3.0 0.00 0.32 0.32 95 1017.9
20230203013047 42 213 0.0 3.0 0.00 0.32 0.32 95 1018.1
20230203011545 42 0 0.0 3.0 0.00 0.32 0.32 95 1018.1
20230203010054 42 0 0.0 3.0 0.00 0.32 0.32 95 1018.2
20230203004546 42 211 1.0 5.0 0.00 0.32 0.32 95 1018.7
20230203003046 42 229 0.0 5.0 0.00 0.32 0.32 95 1019.0
20230203001554 42 219 1.0 5.0 0.00 0.32 0.32 95 1019.1
20230203000055 42 200 0.0 6.0 0.00 0.32 0.32 95 1019.4
20230202234551 42 210 1.0 6.0 0.00 0.32 0.32 95 1019.7
20230202233058 42 250 0.0 4.0 0.00 0.32 0.32 95 1019.4
20230202231552 42 249 1.0 4.0 0.00 0.32 0.32 94 1019.3
20230202230057 42 221 0.0 3.0 0.00 0.32 0.32 94 1018.5
20230202224608 42 211 0.0 5.0 0.00 0.32 0.32 94 1018.1
20230202223059 42 0 1.0 4.0 0.00 0.32 0.32 94 1018.8
20230202221609 42 206 0.0 5.0 0.01 0.32 0.32 94 1019.0
20230202220055 42 232 1.0 2.0 0.01 0.32 0.32 94 1019.0
20230202214552 42 0 1.0 4.0 0.01 0.32 0.32 94 1018.6
20230202213054 42 0 0.0 4.0 0.02 0.32 0.32 94 1018.4
20230202211545 42 0 1.0 4.0 0.01 0.31 0.31 94 1018.2
20230202210046 42 190 1.0 4.0 0.01 0.31 0.31 94 1018.3
20230202204545 42 0 0.0 4.0 0.01 0.31 0.31 94 1019.0
20230202203048 43 0 0.0 3.0 0.00 0.30 0.30 95 1019.5
20230202201548 42 0 0.0 4.0 0.00 0.30 0.30 93 1019.3
20230202200051 42 233 1.0 5.0 0.00 0.30 0.30 93 1019.0
20230202194602 42 0 0.0 5.0 0.00 0.30 0.30 93 1019.5
20230202193045 42 0 0.0 4.0 0.00 0.30 0.30 94 1019.4
20230202191548 42 202 2.0 9.0 0.00 0.30 0.30 93 1019.9
20230202190046 42 238 1.0 6.0 0.00 0.30 0.30 94 1020.4
20230202184601 41 214 0.0 4.0 0.01 0.30 0.30 94 1020.7
20230202183045 42 0 1.0 3.0 0.01 0.30 0.30 94 1020.5
20230202181547 43 0 0.0 3.0 0.01 0.30 0.30 96 1020.8
20230202180051 41 0 1.0 3.0 0.01 0.30 0.30 94 1021.3
20230202174557 41 115 0.0 2.0 0.00 0.29 0.29 94 1021.4
20230202173047 41 115 0.0 2.0 0.00 0.29 0.29 94 1021.4
20230202171558 40 0 0.0 3.0 0.00 0.29 0.29 94 1021.3
20230202170055 40 150 1.0 4.0 0.00 0.29 0.29 94 1021.8
20230202164551 40 0 0.0 7.0 0.01 0.29 0.29 94 1022.1
20230202163051 40 0 0.0 4.0 0.01 0.29 0.29 95 1022.0
20230202161546 38 0 1.0 5.0 0.02 0.29 0.29 95 1022.6
20230202160055 38 169 2.0 8.0 0.03 0.29 0.29 95 1022.9
20230202154553 38 173 1.0 4.0 0.03 0.28 0.28 95 1023.1
20230202153052 38 128 1.0 4.0 0.06 0.28 0.28 95 1023.8
20230202151552 37 103 1.0 4.0 0.05 0.27 0.27 95 1023.5
20230202150045 38 0 0.0 1.0 0.06 0.26 0.26 96 1024.1
20230202144545 39 0 0.0 0.0 0.05 0.25 0.25 96 1023.9
20230202143056 37 0 0.0 4.0 0.02 0.22 0.22 95 1023.6
20230202141546 37 97 1.0 6.0 0.03 0.22 0.22 95 1023.5
20230202140052 39 81 0.0 0.0 0.01 0.20 0.20 96 1024.1
20230202134559 38 0 0.0 0.0 0.01 0.20 0.20 95 1023.4
20230202133051 38 0 0.0 2.0 0.02 0.20 0.20 95 1023.5
20230202131543 39 0 0.0 1.0 0.01 0.19 0.19 96 1023.8
20230202130049 37 0 0.0 2.0 0.02 0.19 0.19 95 1024.1
20230202124546 41 0 0.0 1.0 0.02 0.19 0.19 96 1023.9
20230202123043 39 0 0.0 2.0 0.01 0.18 0.18 96 1023.4
20230202121546 37 0 0.0 2.0 0.01 0.18 0.18 95 1022.7
20230202120046 37 118 2.0 7.0 0.00 0.17 0.17 94 1022.0
20230202114542 37 86 2.0 7.0 0.01 0.17 0.17 94 1022.4
20230202113053 37 107 0.0 3.0 0.03 0.17 0.17 94 1022.6
20230202111542 38 92 0.0 6.0 0.04 0.17 0.17 94 1022.7
20230202110047 38 0 0.0 4.0 0.06 0.17 0.17 95 1023.5
20230202104616 38 0 0.0 1.0 0.08 0.17 0.16 94 1023.9
20230202103042 38 0 0.0 3.0 0.08 0.15 0.14 94 1024.1
20230202101545 39 40 1.0 2.0 0.08 0.14 0.13 94 1024.0
20230202100047 40 0 0.0 1.0 0.06 0.12 0.11 96 1023.4
20230202094546 37 113 1.0 2.0 0.04 0.14 0.08 93 1023.2
20230202093044 37 0 0.0 1.0 0.02 0.12 0.06 93 1023.2
20230202091547 38 0 0.0 3.0 0.02 0.11 0.05 94 1022.9
20230202090100 37 113 0.0 2.0 0.03 0.11 0.05 93 1022.6
20230202084548 38 113 0.0 2.0 0.02 0.12 0.04 93 1022.7
20230202083046 38 0 0.0 3.0 0.02 0.12 0.04 93 1023.0
20230202081609 38 114 0.0 3.0 0.02 0.11 0.03 93 1023.3
20230202080103 38 111 1.0 4.0 0.01 0.10 0.02 92 1023.3
20230202074550 38 0 0.0 2.0 0.02 0.14 0.02 92 1024.1
20230202073046 38 0 0.0 3.0 0.02 0.14 0.02 92 1024.0
20230202071544 38 0 0.0 2.0 0.01 0.13 0.01 92 1024.4
20230202070046 39 0 0.0 3.0 0.01 0.13 0.01 93 1024.6
20230202064545 38 0 0.0 3.0 0.00 0.14 0.00 91 1024.6
20230202063044 38 0 0.0 2.0 0.00 0.14 0.00 91 1024.4
20230202061558 38 0 0.0 2.0 0.00 0.14 0.00 90 1024.6